createdAt,value
2022-11-01T00:01:43.385Z,9.17
2022-11-01T00:04:11.802Z,9.33
2022-11-01T00:06:39.676Z,8.93
2022-11-01T00:09:09.272Z,9.47
2022-11-01T00:11:37.035Z,8.83
2022-11-01T00:14:05.502Z,9.07
2022-11-01T00:16:33.345Z,9.53
2022-11-01T00:19:01.137Z,8.93
2022-11-01T00:21:28.970Z,9.10
2022-11-01T00:23:56.751Z,8.33
2022-11-01T00:26:26.638Z,9.67
2022-11-01T00:28:54.514Z,8.47
2022-11-01T00:31:22.482Z,10.03
2022-11-01T00:33:50.186Z,9.17
2022-11-01T00:36:18.273Z,8.93
2022-11-01T00:38:45.985Z,8.30
2022-11-01T00:41:15.567Z,8.47
2022-11-01T00:43:44.634Z,8.67
2022-11-01T00:46:12.305Z,8.07
2022-11-01T00:48:39.977Z,8.50
2022-11-01T00:51:07.810Z,8.47
2022-11-01T00:53:35.563Z,7.70
2022-11-01T00:56:04.177Z,8.10
2022-11-01T00:58:32.358Z,8.57
2022-11-01T01:01:01.761Z,8.93
2022-11-01T01:03:30.852Z,8.47
2022-11-01T01:05:59.058Z,11.03
2022-11-01T01:08:26.894Z,11.27
2022-11-01T01:10:54.982Z,10.97
2022-11-01T01:13:23.261Z,10.37
2022-11-01T01:15:51.046Z,10.33
2022-11-01T01:18:20.138Z,10.00
2022-11-01T01:20:47.911Z,9.50
2022-11-01T01:23:15.640Z,8.70
2022-11-01T01:25:43.898Z,9.40
2022-11-01T01:28:11.650Z,8.87
2022-11-01T01:30:41.084Z,9.90
2022-11-01T01:33:08.867Z,8.57
2022-11-01T01:35:39.701Z,8.67
2022-11-01T01:38:08.103Z,9.17
2022-11-01T01:40:36.450Z,8.33
2022-11-01T01:43:04.151Z,9.47
2022-11-01T01:45:37.838Z,8.03
2022-11-01T01:48:13.693Z,8.30
2022-11-01T01:50:48.596Z,8.60
2022-11-01T01:53:22.048Z,8.83
2022-11-01T01:55:55.822Z,9.37
2022-11-01T01:58:28.512Z,9.00
2022-11-01T02:00:56.538Z,8.80
2022-11-01T02:03:28.325Z,8.87
2022-11-01T02:05:59.898Z,8.60
2022-11-01T02:08:28.826Z,7.20
2022-11-01T02:11:00.285Z,6.27
2022-11-01T02:13:28.506Z,5.80
2022-11-01T02:16:12.782Z,6.40
2022-11-01T02:18:47.760Z,7.17
2022-11-01T02:21:42.792Z,7.73
2022-11-01T02:24:45.018Z,7.30
2022-11-01T02:27:20.705Z,7.40
2022-11-01T02:30:07.765Z,7.07
2022-11-01T02:32:58.098Z,7.87
2022-11-01T02:35:34.045Z,8.00
2022-11-01T02:38:07.903Z,7.83
2022-11-01T02:40:44.166Z,8.30
2022-11-01T02:43:17.238Z,7.47
2022-11-01T02:45:49.347Z,8.17
2022-11-01T02:48:21.283Z,6.57
2022-11-01T02:50:54.253Z,5.87
2022-11-01T02:53:21.991Z,7.00
2022-11-01T02:55:53.051Z,7.60
2022-11-01T02:58:24.075Z,8.23
2022-11-01T03:00:52.972Z,7.93
2022-11-01T03:03:25.227Z,8.63
2022-11-01T03:05:59.798Z,8.80
2022-11-01T03:08:30.385Z,8.10
2022-11-01T03:11:07.611Z,7.87
2022-11-01T03:13:53.501Z,8.50
2022-11-01T03:16:29.735Z,9.10
2022-11-01T03:19:23.166Z,8.00
2022-11-01T03:21:58.420Z,8.57
2022-11-01T03:24:28.838Z,7.63
2022-11-01T03:27:02.302Z,7.80
2022-11-01T03:29:31.263Z,8.53
2022-11-01T03:32:02.880Z,8.37
2022-11-01T03:34:34.848Z,8.63
2022-11-01T03:37:08.086Z,8.00
2022-11-01T03:39:41.025Z,8.87
2022-11-01T03:42:12.914Z,7.97
2022-11-01T03:44:44.482Z,8.03
2022-11-01T03:47:12.816Z,7.80
2022-11-01T03:49:42.110Z,9.73
2022-11-01T03:52:09.904Z,7.80
2022-11-01T03:54:37.703Z,8.27
2022-11-01T03:57:05.494Z,7.90
2022-11-01T03:59:33.222Z,8.53
2022-11-01T04:02:01.109Z,8.83
2022-11-01T04:04:29.006Z,8.37
2022-11-01T04:06:58.123Z,7.23
2022-11-01T04:09:25.894Z,8.37
2022-11-01T04:11:53.567Z,7.83
2022-11-01T04:14:38.758Z,7.90
2022-11-01T04:17:23.810Z,7.87
2022-11-01T04:20:09.241Z,7.03
2022-11-01T04:22:39.201Z,8.83
2022-11-01T04:25:07.116Z,10.00
2022-11-01T04:27:34.845Z,7.60
2022-11-01T04:30:02.654Z,8.73
2022-11-01T04:32:30.359Z,7.67
2022-11-01T04:34:58.137Z,8.07
2022-11-01T04:37:25.926Z,8.10
2022-11-01T04:39:55.023Z,8.10
2022-11-01T04:42:22.747Z,10.33
2022-11-01T04:44:50.462Z,7.67
2022-11-01T04:47:22.401Z,8.70
2022-11-01T04:49:50.099Z,8.13
2022-11-01T04:52:17.842Z,8.83
2022-11-01T04:54:45.590Z,8.17
2022-11-01T04:57:24.197Z,8.97
2022-11-01T04:59:52.602Z,14.67
2022-11-01T05:02:21.118Z,27.87
2022-11-01T05:04:49.043Z,28.03
2022-11-01T05:07:17.040Z,21.27
2022-11-01T05:09:44.858Z,12.73
2022-11-01T05:12:13.939Z,11.67
2022-11-01T05:14:41.690Z,22.70
2022-11-01T05:17:09.440Z,15.00
2022-11-01T05:19:37.161Z,13.83
2022-11-01T05:22:05.161Z,10.63
2022-11-01T05:24:33.022Z,8.60
2022-11-01T05:27:01.509Z,9.43
2022-11-01T05:29:33.226Z,8.20
2022-11-01T05:32:01.319Z,7.80
2022-11-01T05:34:29.034Z,7.27
2022-11-01T05:36:56.878Z,7.83
2022-11-01T05:39:24.584Z,8.27
2022-11-01T05:41:53.774Z,8.17
2022-11-01T05:44:23.375Z,10.77
2022-11-01T05:46:52.468Z,9.13
2022-11-01T05:49:20.238Z,7.67
2022-11-01T05:51:47.958Z,8.03
2022-11-01T05:54:15.677Z,8.13
2022-11-01T05:56:43.383Z,8.43
2022-11-01T05:59:11.126Z,9.00
2022-11-01T06:01:38.948Z,8.60
2022-11-01T06:04:08.484Z,8.57
2022-11-01T06:06:36.272Z,8.53
2022-11-01T06:09:04.167Z,8.93
2022-11-01T06:11:31.904Z,8.13
2022-11-01T06:14:00.329Z,8.63
2022-11-01T06:16:28.208Z,8.50
2022-11-01T06:18:55.962Z,9.17
2022-11-01T06:21:27.685Z,9.50
2022-11-01T06:23:58.025Z,9.30
2022-11-01T06:26:25.790Z,9.67
2022-11-01T06:28:53.517Z,10.13
2022-11-01T06:31:21.991Z,12.93
2022-11-01T06:33:50.610Z,13.70
2022-11-01T06:36:18.382Z,12.73
2022-11-01T06:38:47.459Z,10.03
2022-11-01T06:41:15.734Z,11.67
2022-11-01T06:43:43.462Z,11.23
2022-11-01T06:46:11.286Z,13.27
2022-11-01T06:48:39.077Z,12.67
2022-11-01T06:51:07.195Z,11.97
2022-11-01T06:53:34.995Z,12.13
2022-11-01T06:56:04.147Z,12.87
2022-11-01T06:58:31.895Z,12.00
2022-11-01T07:01:02.351Z,11.87
2022-11-01T07:03:30.705Z,11.10
2022-11-01T07:06:00.980Z,10.57
2022-11-01T07:08:28.729Z,10.30
2022-11-01T07:10:56.541Z,10.23
2022-11-01T07:13:25.676Z,10.13
2022-11-01T07:15:53.761Z,11.90
2022-11-01T07:18:21.836Z,11.30
2022-11-01T07:20:49.617Z,11.27
2022-11-01T07:23:18.373Z,11.00
2022-11-01T07:25:46.274Z,11.00
2022-11-01T07:28:13.997Z,10.67
2022-11-01T07:30:43.227Z,12.40
2022-11-01T07:33:11.057Z,16.33
2022-11-01T07:35:38.889Z,14.40
2022-11-01T07:38:11.552Z,14.37
2022-11-01T07:40:41.298Z,12.97
2022-11-01T07:43:09.095Z,12.57
2022-11-01T07:45:37.618Z,12.30
2022-11-01T07:48:10.202Z,11.53
2022-11-01T07:50:39.590Z,11.37
2022-11-01T07:53:09.119Z,12.43
2022-11-01T07:55:37.263Z,12.50
2022-11-01T07:58:06.064Z,11.77
2022-11-01T08:03:03.835Z,13.17
2022-11-01T08:05:33.906Z,14.20
2022-11-01T08:08:02.456Z,13.47
2022-11-01T08:10:31.679Z,14.70
2022-11-01T08:13:04.023Z,18.97
2022-11-01T08:15:31.947Z,19.63
2022-11-01T08:18:01.326Z,19.30
2022-11-01T08:20:29.998Z,15.77
2022-11-01T08:22:59.333Z,15.57
2022-11-01T08:25:27.602Z,17.73
2022-11-01T08:27:55.295Z,14.80
2022-11-01T08:30:23.780Z,15.90
2022-11-01T08:32:58.048Z,13.40
2022-11-01T08:35:25.806Z,13.83
2022-11-01T08:37:54.345Z,12.33
2022-11-01T08:40:24.786Z,12.13
2022-11-01T08:42:52.862Z,12.77
2022-11-01T08:45:20.893Z,12.93
2022-11-01T08:47:48.649Z,13.37
2022-11-01T08:50:18.703Z,11.50
2022-11-01T08:52:46.605Z,11.67
2022-11-01T08:55:14.538Z,11.20
2022-11-01T08:57:43.653Z,9.07
2022-11-01T09:00:15.932Z,10.70
2022-11-01T09:02:44.058Z,9.70
2022-11-01T09:05:11.814Z,10.03
2022-11-01T09:07:39.952Z,7.57
2022-11-01T09:10:09.181Z,9.03
2022-11-01T09:12:37.898Z,7.77
2022-11-01T09:15:08.229Z,10.20
2022-11-01T09:17:36.219Z,7.83
2022-11-01T09:20:05.132Z,8.30
2022-11-01T09:22:32.831Z,9.90
2022-11-01T09:25:00.554Z,5.87
2022-11-01T09:27:28.532Z,6.87
2022-11-01T09:29:56.273Z,7.77
2022-11-01T09:32:28.127Z,6.93
2022-11-01T09:34:56.116Z,7.77
2022-11-01T09:37:24.111Z,6.50
2022-11-01T09:39:51.798Z,5.10
2022-11-01T09:42:26.290Z,5.87
2022-11-01T09:44:56.522Z,6.93
2022-11-01T09:47:29.832Z,5.10
2022-11-01T09:50:03.926Z,4.90
2022-11-01T09:52:32.001Z,6.50
2022-11-01T09:54:59.750Z,4.80
2022-11-01T09:57:36.158Z,5.57
2022-11-01T10:00:08.726Z,4.67
2022-11-01T10:03:18.326Z,7.57
2022-11-01T10:05:52.360Z,7.80
2022-11-01T10:08:32.037Z,6.33
2022-11-01T10:11:14.559Z,6.63
2022-11-01T10:13:52.435Z,7.40
2022-11-01T10:16:29.490Z,6.00
2022-11-01T10:19:05.117Z,5.37
2022-11-01T10:21:42.817Z,6.63
2022-11-01T10:24:21.813Z,8.00
2022-11-01T10:26:56.100Z,5.53
2022-11-01T10:29:33.567Z,6.23
2022-11-01T10:32:03.461Z,6.77
2022-11-01T10:34:36.418Z,5.17
2022-11-01T10:37:16.321Z,5.30
2022-11-01T10:39:55.616Z,5.37
2022-11-01T10:42:29.724Z,8.60
2022-11-01T10:45:00.965Z,7.07
2022-11-01T10:47:29.198Z,4.00
2022-11-01T10:50:06.094Z,6.33
2022-11-01T10:52:46.474Z,8.60
2022-11-01T10:55:18.498Z,5.50
2022-11-01T10:57:52.669Z,4.23
2022-11-01T11:00:21.965Z,4.37
2022-11-01T11:02:54.690Z,4.13
2022-11-01T11:05:24.441Z,3.43
2022-11-01T11:07:53.862Z,5.83
2022-11-01T11:10:26.616Z,5.60
2022-11-01T11:12:59.130Z,4.53
2022-11-01T11:15:37.873Z,7.13
2022-11-01T11:18:15.664Z,5.47
2022-11-01T11:20:44.117Z,3.23
2022-11-01T11:23:13.807Z,4.13
2022-11-01T11:25:44.751Z,4.73
2022-11-01T11:28:23.338Z,3.70
2022-11-01T11:30:51.394Z,4.53
2022-11-01T11:33:19.900Z,4.07
2022-11-01T11:35:56.318Z,3.43
2022-11-01T11:38:45.081Z,3.47
2022-11-01T11:41:14.646Z,3.80
2022-11-01T11:43:42.609Z,3.23
2022-11-01T11:46:19.094Z,5.37
2022-11-01T11:48:48.729Z,2.77
2022-11-01T11:51:17.108Z,3.07
2022-11-01T11:54:03.802Z,3.40
2022-11-01T11:56:31.706Z,3.50
2022-11-01T11:59:07.398Z,3.63
2022-11-01T12:01:36.649Z,2.87
2022-11-01T12:04:09.536Z,2.33
2022-11-01T12:06:40.177Z,3.37
2022-11-01T12:09:35.633Z,2.77
2022-11-01T12:12:08.052Z,3.63
2022-11-01T12:14:38.634Z,1.97
2022-11-01T12:17:25.063Z,2.40
2022-11-01T12:19:59.876Z,3.07
2022-11-01T12:22:31.864Z,2.47
2022-11-01T12:25:05.173Z,4.10
2022-11-01T12:27:35.691Z,3.10
2022-11-01T12:30:08.394Z,4.03
2022-11-01T12:32:44.987Z,6.13
2022-11-01T12:35:22.393Z,3.20
2022-11-01T12:38:02.123Z,2.80
2022-11-01T12:40:35.700Z,3.43
2022-11-01T12:43:10.775Z,3.03
2022-11-01T12:45:46.737Z,2.03
2022-11-01T12:48:22.430Z,3.87
2022-11-01T12:50:54.024Z,2.60
2022-11-01T12:53:25.611Z,2.40
2022-11-01T12:55:55.003Z,2.30
2022-11-01T12:58:23.986Z,4.13
2022-11-01T13:01:14.199Z,3.00
2022-11-01T13:03:48.471Z,2.20
2022-11-01T13:06:31.447Z,3.13
2022-11-01T13:09:06.378Z,2.80
2022-11-01T13:11:42.901Z,2.60
2022-11-01T13:14:31.185Z,2.90
2022-11-01T13:17:06.918Z,2.60
2022-11-01T13:19:43.327Z,2.73
2022-11-01T13:22:20.734Z,1.77
2022-11-01T13:24:55.882Z,2.87
2022-11-01T13:27:30.792Z,3.90
2022-11-01T13:30:03.145Z,3.47
2022-11-01T13:32:37.586Z,3.63
2022-11-01T13:35:32.734Z,2.73
2022-11-01T13:38:08.093Z,2.90
2022-11-01T13:40:43.089Z,2.17
2022-11-01T13:43:16.957Z,1.80
2022-11-01T13:46:10.303Z,3.10
2022-11-01T13:48:58.046Z,2.13
2022-11-01T13:51:40.158Z,2.10
2022-11-01T13:54:17.870Z,1.97
2022-11-01T13:56:56.291Z,3.80
2022-11-01T13:59:44.674Z,3.83
2022-11-01T14:02:36.083Z,3.70
2022-11-01T14:05:07.030Z,2.43
2022-11-01T14:07:37.305Z,1.70
2022-11-01T14:10:10.983Z,2.10
2022-11-01T14:12:44.828Z,4.73
2022-11-01T14:15:24.751Z,3.43
2022-11-01T14:18:08.884Z,3.63
2022-11-01T14:20:52.463Z,3.17
2022-11-01T14:24:02.763Z,2.60
2022-11-01T14:26:49.722Z,1.90
2022-11-01T14:29:18.034Z,2.77
2022-11-01T14:31:53.656Z,2.83
2022-11-01T14:34:25.721Z,3.73
2022-11-01T14:36:55.784Z,3.20
2022-11-01T14:39:29.240Z,2.67
2022-11-01T14:41:58.646Z,3.20
2022-11-01T14:44:32.742Z,2.47
2022-11-01T14:47:06.997Z,2.53
2022-11-01T14:49:40.663Z,2.30
2022-11-01T14:52:15.015Z,2.30
2022-11-01T14:54:47.590Z,2.63
2022-11-01T14:57:25.944Z,4.13
2022-11-01T14:59:54.533Z,3.63
2022-11-01T15:02:25.487Z,2.40
2022-11-01T15:04:59.146Z,2.97
2022-11-01T15:07:31.164Z,3.37
2022-11-01T15:10:01.446Z,3.03
2022-11-01T15:12:32.461Z,4.37
2022-11-01T15:15:01.279Z,3.10
2022-11-01T15:17:34.137Z,4.20
2022-11-01T15:20:12.981Z,5.07
2022-11-01T15:22:42.907Z,2.67
2022-11-01T15:25:21.240Z,3.53
2022-11-01T15:27:50.195Z,2.87
2022-11-01T15:30:23.874Z,3.53
2022-11-01T15:32:54.931Z,3.33
2022-11-01T15:35:25.511Z,2.50
2022-11-01T15:37:55.044Z,3.50
2022-11-01T15:40:29.925Z,3.97
2022-11-01T15:42:58.719Z,3.00
2022-11-01T15:45:29.950Z,3.37
2022-11-01T15:48:01.464Z,3.57
2022-11-01T15:50:35.388Z,2.77
2022-11-01T15:53:04.638Z,2.20
2022-11-01T15:55:36.077Z,2.40
2022-11-01T15:58:07.634Z,2.43
2022-11-01T16:00:42.321Z,3.77
2022-11-01T16:03:18.208Z,8.20
2022-11-01T16:05:56.723Z,11.57
2022-11-01T16:08:31.679Z,13.13
2022-11-01T16:10:59.954Z,12.13
2022-11-01T16:13:28.196Z,9.23
2022-11-01T16:16:04.210Z,6.60
2022-11-01T16:18:36.941Z,4.70
2022-11-01T16:21:07.073Z,3.93
2022-11-01T16:23:35.707Z,2.97
2022-11-01T16:26:06.575Z,2.97
2022-11-01T16:28:39.807Z,2.50
2022-11-01T16:31:20.374Z,2.63
2022-11-01T16:33:51.209Z,2.37
2022-11-01T16:36:41.452Z,2.50
2022-11-01T16:39:30.789Z,2.60
2022-11-01T16:41:59.379Z,3.47
2022-11-01T16:44:27.206Z,2.67
2022-11-01T16:46:55.333Z,3.00
2022-11-01T16:49:26.253Z,2.63
2022-11-01T16:51:56.410Z,3.00
2022-11-01T16:54:24.783Z,3.80
2022-11-01T16:56:54.264Z,2.60
2022-11-01T16:59:30.301Z,3.63
2022-11-01T17:01:58.941Z,3.63
2022-11-01T17:04:29.178Z,3.67
2022-11-01T17:07:00.240Z,3.60
2022-11-01T17:09:31.514Z,4.00
2022-11-01T17:11:59.261Z,3.00
2022-11-01T17:14:27.079Z,3.70
2022-11-01T17:16:56.132Z,4.60
2022-11-01T17:19:27.137Z,4.47
2022-11-01T17:21:57.539Z,4.07
2022-11-01T17:24:27.111Z,7.97
2022-11-01T17:26:58.904Z,5.63
2022-11-01T17:29:26.772Z,3.53
2022-11-01T17:31:54.584Z,3.67
2022-11-01T17:34:22.456Z,2.97
2022-11-01T17:36:51.579Z,4.30
2022-11-01T17:39:21.187Z,4.00
2022-11-01T17:41:48.934Z,3.20
2022-11-01T17:44:17.483Z,2.63
2022-11-01T17:46:45.216Z,2.77
2022-11-01T17:49:14.947Z,3.57
2022-11-01T17:51:42.827Z,4.67
2022-11-01T17:54:10.851Z,2.40
2022-11-01T17:56:39.995Z,4.90
2022-11-01T17:59:08.674Z,3.80
2022-11-01T18:01:38.188Z,3.60
2022-11-01T18:04:07.304Z,4.17
2022-11-01T18:06:35.086Z,2.47
2022-11-01T18:09:05.454Z,2.70
2022-11-01T18:11:43.174Z,2.93
2022-11-01T18:14:15.900Z,2.97
2022-11-01T18:16:48.882Z,2.93
2022-11-01T18:19:30.438Z,4.83
2022-11-01T18:22:09.517Z,6.90
2022-11-01T18:24:42.176Z,3.23
2022-11-01T18:27:12.893Z,3.87
2022-11-01T18:29:42.678Z,4.40
2022-11-01T18:32:17.906Z,3.63
2022-11-01T18:34:49.464Z,2.47
2022-11-01T18:37:27.675Z,3.80
2022-11-01T18:40:12.611Z,5.77
2022-11-01T18:42:42.601Z,3.90
2022-11-01T18:45:19.507Z,3.03
2022-11-01T18:47:51.389Z,7.33
2022-11-01T18:50:25.216Z,3.20
2022-11-01T18:53:02.411Z,6.00
2022-11-01T18:55:32.797Z,2.77
2022-11-01T18:58:13.432Z,3.47
2022-11-01T19:00:42.013Z,3.67
2022-11-01T19:03:12.724Z,2.73
2022-11-01T19:05:41.311Z,3.33
2022-11-01T19:08:20.098Z,3.53
2022-11-01T19:10:47.891Z,3.07
2022-11-01T19:13:24.255Z,2.60
2022-11-01T19:15:54.413Z,3.20
2022-11-01T19:18:28.623Z,4.80
2022-11-01T19:20:58.383Z,3.07
2022-11-01T19:23:34.858Z,4.70
2022-11-01T19:26:03.873Z,5.00
2022-11-01T19:28:37.486Z,4.70
2022-11-01T19:31:15.923Z,4.30
2022-11-01T19:33:46.321Z,5.30
2022-11-01T19:36:18.168Z,3.33
2022-11-01T19:38:46.349Z,3.30
2022-11-01T19:41:16.902Z,2.87
2022-11-01T19:43:46.059Z,3.70
2022-11-01T19:46:18.444Z,3.20
2022-11-01T19:48:47.023Z,4.17
2022-11-01T19:51:20.051Z,3.30
2022-11-01T19:53:48.406Z,2.93
2022-11-01T19:56:19.959Z,3.77
2022-11-01T19:58:51.806Z,4.43
2022-11-01T20:01:41.872Z,4.07
2022-11-01T20:04:27.020Z,5.30
2022-11-01T20:07:01.199Z,5.10
2022-11-01T20:09:31.469Z,4.53
2022-11-01T20:11:59.429Z,4.30
2022-11-01T20:14:28.899Z,5.00
2022-11-01T20:16:57.061Z,4.80
2022-11-01T20:19:25.157Z,3.67
2022-11-01T20:21:53.101Z,2.83
2022-11-01T20:24:21.003Z,3.50
2022-11-01T20:26:48.983Z,4.30
2022-11-01T20:29:17.265Z,4.37
2022-11-01T20:31:47.991Z,4.27
2022-11-01T20:34:16.498Z,3.97
2022-11-01T20:36:46.838Z,5.27
2022-11-01T20:39:19.997Z,4.80
2022-11-01T20:41:49.514Z,5.50
2022-11-01T20:44:17.807Z,4.80
2022-11-01T20:46:47.228Z,4.50
2022-11-01T20:49:15.323Z,5.50
2022-11-01T20:51:43.149Z,4.50
2022-11-01T20:54:17.490Z,3.77
2022-11-01T20:56:45.763Z,4.73
2022-11-01T20:59:15.857Z,4.30
2022-11-01T21:01:48.160Z,3.10
2022-11-01T21:04:16.990Z,3.43
2022-11-01T21:06:44.919Z,3.30
2022-11-01T21:09:30.666Z,3.83
2022-11-01T21:11:58.928Z,3.37
2022-11-01T21:14:36.938Z,3.63
2022-11-01T21:17:14.985Z,3.40
2022-11-01T21:19:43.011Z,3.73
2022-11-01T21:22:20.056Z,3.70
2022-11-01T21:24:50.201Z,3.80
2022-11-01T21:27:24.738Z,5.47
2022-11-01T21:29:55.682Z,5.03
2022-11-01T21:32:34.551Z,3.70
2022-11-01T21:35:23.026Z,4.07
2022-11-01T21:37:54.436Z,3.47
2022-11-01T21:40:30.298Z,4.17
2022-11-01T21:42:58.933Z,4.87
2022-11-01T21:45:30.909Z,5.33
2022-11-01T21:48:03.489Z,8.43
2022-11-01T21:50:31.520Z,3.47
2022-11-01T21:52:59.252Z,3.63
2022-11-01T21:55:27.173Z,3.70
2022-11-01T21:57:54.969Z,3.77
2022-11-01T22:00:22.787Z,4.93
2022-11-01T22:02:50.506Z,3.50
2022-11-01T22:05:19.616Z,4.90
2022-11-01T22:07:47.335Z,4.27
2022-11-01T22:10:15.126Z,4.50
2022-11-01T22:12:42.835Z,4.10
2022-11-01T22:15:11.471Z,4.83
2022-11-01T22:17:39.218Z,3.43
2022-11-01T22:20:07.464Z,4.70
2022-11-01T22:22:36.548Z,8.30
2022-11-01T22:25:04.492Z,4.27
2022-11-01T22:27:32.307Z,3.93
2022-11-01T22:30:00.058Z,5.50
2022-11-01T22:32:27.774Z,11.47
2022-11-01T22:34:55.863Z,7.97
2022-11-01T22:37:23.733Z,5.57
2022-11-01T22:39:53.279Z,6.73
2022-11-01T22:42:22.096Z,4.60
2022-11-01T22:44:51.582Z,4.03
2022-11-01T22:47:25.533Z,5.77
2022-11-01T22:49:55.278Z,4.47
2022-11-01T22:52:31.397Z,4.67
2022-11-01T22:55:04.601Z,5.67
2022-11-01T22:57:34.791Z,4.47
2022-11-01T23:00:22.236Z,5.70
2022-11-01T23:02:50.056Z,6.67
2022-11-01T23:05:24.841Z,5.73
2022-11-01T23:07:53.797Z,3.23
2022-11-01T23:10:26.446Z,3.23
2022-11-01T23:13:16.781Z,4.97
2022-11-01T23:15:44.931Z,3.30
2022-11-01T23:18:18.583Z,3.33
2022-11-01T23:20:51.962Z,3.77
2022-11-01T23:23:21.600Z,3.53
2022-11-01T23:25:51.238Z,5.13
2022-11-01T23:28:19.394Z,5.50
2022-11-01T23:30:49.011Z,7.77
2022-11-01T23:33:19.881Z,5.00
2022-11-01T23:35:53.058Z,4.37
2022-11-01T23:38:24.018Z,4.10
2022-11-01T23:40:54.930Z,4.63
2022-11-01T23:43:25.322Z,4.30
2022-11-01T23:45:53.774Z,3.50
2022-11-01T23:48:23.433Z,4.47
2022-11-01T23:50:53.898Z,4.13
2022-11-01T23:53:26.532Z,4.63
2022-11-01T23:55:55.794Z,3.50
